Time;durP1;ratioP1;P1;durP2;ratioP2;P2;SDS_P1;SDS_P2;PMS_P1;PMS_P2;Temp;Humidity;BMP_temperature;BMP_pressure;BME280_temperature;BME280_humidity;BME280_pressure;Samples;Min_cycle;Max_cycle;Signal;HPM_P1;HPM_P2
2022/03/24 00:01:30;;;;;;;27.55;17.02;;;8.60;79.40;;;;;;5074802;28;20020;-44
2022/03/24 00:03:56;;;;;;;24.13;15.38;;;8.60;79.60;;;;;;5093063;28;20115;-43
2022/03/24 00:06:21;;;;;;;29.85;16.10;;;8.50;80.00;;;;;;5092808;28;20391;-43
2022/03/24 00:08:47;;;;;;;28.70;17.88;;;8.50;78.80;;;;;;5091818;28;20039;-44
2022/03/24 00:11:12;;;;;;;38.22;17.83;;;8.30;80.00;;;;;;5092660;28;20031;-45
2022/03/24 00:13:38;;;;;;;25.02;15.23;;;8.20;80.50;;;;;;5074589;28;20032;-48
2022/03/24 00:16:04;;;;;;;26.75;16.75;;;8.20;81.30;;;;;;5092322;28;20429;-42
2022/03/24 00:18:31;;;;;;;31.95;17.50;;;8.10;81.70;;;;;;5092286;28;20493;-46
2022/03/24 00:21:01;;;;;;;33.17;17.10;;;8.10;82.70;;;;;;5092369;28;20098;-46
2022/03/24 00:23:26;;;;;;;31.00;18.30;;;8.10;82.60;;;;;;5092405;28;20031;-43
2022/03/24 00:25:52;;;;;;;31.60;17.33;;;8.10;83.00;;;;;;5074029;28;20020;-42
2022/03/24 00:28:17;;;;;;;29.27;17.75;;;8.20;83.40;;;;;;5092176;28;20027;-45
2022/03/24 00:30:43;;;;;;;26.05;16.60;;;8.20;83.30;;;;;;5092382;28;20067;-44
2022/03/24 00:33:09;;;;;;;31.60;17.70;;;8.30;84.00;;;;;;5092323;28;20024;-42
2022/03/24 00:35:34;;;;;;;26.95;17.02;;;8.40;83.60;;;;;;5092221;28;20190;-43
2022/03/24 00:37:59;;;;;;;32.60;16.95;;;8.50;83.20;;;;;;5091904;28;20032;-43
2022/03/24 00:40:25;;;;;;;28.60;17.70;;;8.70;83.10;;;;;;5092230;28;20475;-43
2022/03/24 00:42:51;;;;;;;30.50;17.63;;;8.80;82.20;;;;;;5074068;28;20051;-42
2022/03/24 00:45:18;;;;;;;27.92;17.15;;;8.80;81.70;;;;;;5092025;28;20024;-42
2022/03/24 00:47:45;;;;;;;31.92;17.33;;;8.90;82.30;;;;;;5091735;28;20024;-42
2022/03/24 00:50:11;;;;;;;27.30;17.70;;;8.80;81.80;;;;;;5091971;28;20020;-42
2022/03/24 00:52:41;;;;;;;33.05;16.52;;;8.70;82.30;;;;;;5091939;28;20024;-43
2022/03/24 00:55:15;;;;;;;26.20;16.83;;;8.50;83.40;;;;;;5091876;28;20062;-47
2022/03/24 00:57:42;;;;;;;26.95;16.88;;;8.40;86.00;;;;;;5091484;28;20024;-43
2022/03/24 01:00:09;;;;;;;24.73;16.70;;;8.30;86.70;;;;;;5091892;28;20020;-46
2022/03/24 01:02:37;;;;;;;31.10;17.38;;;8.20;87.50;;;;;;5092035;28;20036;-44
2022/03/24 01:05:07;;;;;;;28.02;15.63;;;8.10;88.20;;;;;;5092159;28;20040;-42
2022/03/24 01:07:33;;;;;;;140.07;83.65;;;8.00;89.00;;;;;;5091695;28;20460;-44
2022/03/24 01:09:59;;;;;;;810.78;415.27;;;8.00;90.10;;;;;;5092696;28;20035;-43
2022/03/24 01:12:24;;;;;;;108.82;50.85;;;7.90;90.10;;;;;;5092341;28;20020;-46
2022/03/24 01:14:50;;;;;;;38.08;21.38;;;7.80;90.20;;;;;;5091935;28;20032;-44
2022/03/24 01:17:16;;;;;;;29.58;17.45;;;7.80;90.60;;;;;;5091369;28;20507;-42
2022/03/24 01:19:42;;;;;;;21.05;15.13;;;7.80;90.50;;;;;;5091665;28;20096;-44
2022/03/24 01:22:08;;;;;;;32.08;18.45;;;7.80;90.60;;;;;;5096407;28;20016;-43
2022/03/24 01:24:37;;;;;;;25.33;16.45;;;7.80;90.50;;;;;;5102474;28;20442;-45
2022/03/24 01:27:04;;;;;;;26.65;16.63;;;7.90;88.80;;;;;;5100074;28;20020;-44
2022/03/24 01:29:29;;;;;;;25.92;17.08;;;7.90;89.00;;;;;;5098525;28;20387;-43
2022/03/24 01:31:55;;;;;;;28.67;16.35;;;8.00;88.80;;;;;;5101861;28;20035;-47
2022/03/24 01:34:20;;;;;;;23.80;16.35;;;7.90;90.10;;;;;;5102109;28;20024;-44
2022/03/24 01:36:46;;;;;;;27.65;16.15;;;7.80;90.80;;;;;;5111532;28;20024;-45
2022/03/24 01:39:11;;;;;;;24.48;14.55;;;7.60;91.50;;;;;;5111600;28;20051;-44
2022/03/24 01:41:40;;;;;;;22.73;14.23;;;7.50;90.00;;;;;;5111823;28;20016;-42
2022/03/24 01:44:14;;;;;;;24.33;15.38;;;7.40;89.00;;;;;;5111859;28;20073;-46
2022/03/24 01:46:55;;;;;;;23.85;15.23;;;7.30;88.80;;;;;;5112110;28;20490;-42
2022/03/24 01:49:20;;;;;;;23.42;14.82;;;7.30;88.90;;;;;;5112310;28;20036;-46
2022/03/24 01:51:46;;;;;;;26.45;16.25;;;7.30;89.00;;;;;;5111708;28;20028;-46
2022/03/24 01:54:12;;;;;;;27.45;16.33;;;7.20;89.20;;;;;;5111389;28;20031;-46
2022/03/24 01:56:38;;;;;;;27.08;15.45;;;7.30;89.80;;;;;;5112950;28;20032;-43
2022/03/24 01:59:07;;;;;;;30.20;15.77;;;7.40;90.10;;;;;;5111433;28;20023;-45
2022/03/24 02:01:37;;;;;;;22.45;15.02;;;7.40;90.10;;;;;;5111634;28;20537;-46
2022/03/24 02:04:04;;;;;;;31.63;17.00;;;7.30;90.30;;;;;;5111466;28;20161;-44
2022/03/24 02:06:33;;;;;;;24.80;16.38;;;7.40;90.30;;;;;;5111491;28;20023;-42
2022/03/24 02:08:59;;;;;;;23.92;16.33;;;7.50;90.20;;;;;;5111270;28;20031;-41
2022/03/24 02:11:26;;;;;;;23.90;15.10;;;7.60;90.20;;;;;;5111553;28;20030;-43
2022/03/24 02:13:51;;;;;;;24.15;15.60;;;7.70;90.40;;;;;;5111508;28;20393;-45
2022/03/24 02:16:17;;;;;;;25.63;15.95;;;7.70;90.70;;;;;;5111233;28;20094;-46
2022/03/24 02:18:44;;;;;;;19.30;14.50;;;7.70;90.70;;;;;;5111045;28;20050;-43
2022/03/24 02:21:12;;;;;;;29.73;16.40;;;7.60;90.80;;;;;;5111373;28;20028;-44
2022/03/24 02:23:37;;;;;;;23.77;16.05;;;7.50;91.00;;;;;;5111566;28;20020;-45
2022/03/24 02:26:07;;;;;;;25.33;15.70;;;7.40;91.30;;;;;;5111215;28;20111;-43
2022/03/24 02:28:33;;;;;;;19.45;14.13;;;7.30;91.70;;;;;;5111642;28;20039;-46
2022/03/24 02:30:58;;;;;;;21.08;15.10;;;7.20;92.50;;;;;;5111392;28;20042;-42
2022/03/24 02:33:24;;;;;;;24.10;15.15;;;7.10;93.10;;;;;;5112752;28;20032;-43
2022/03/24 02:35:52;;;;;;;24.40;15.88;;;6.90;93.60;;;;;;5114744;28;20542;-43
2022/03/24 02:38:19;;;;;;;25.95;15.57;;;6.90;93.50;;;;;;5114915;28;20119;-43
2022/03/24 02:40:47;;;;;;;28.27;15.75;;;6.80;92.60;;;;;;5114971;28;20024;-43
2022/03/24 02:43:12;;;;;;;22.67;15.75;;;6.80;91.90;;;;;;5096680;28;20019;-43
2022/03/24 02:45:38;;;;;;;24.83;16.55;;;6.80;92.10;;;;;;5115994;28;20039;-41
2022/03/24 02:48:04;;;;;;;22.48;15.05;;;6.70;92.70;;;;;;5116110;28;20032;-42
2022/03/24 02:50:29;;;;;;;24.13;14.82;;;6.70;93.40;;;;;;5107593;28;20108;-43
2022/03/24 02:52:55;;;;;;;21.00;14.40;;;6.70;93.70;;;;;;5095330;28;20103;-42
2022/03/24 02:55:20;;;;;;;25.80;15.38;;;6.60;93.40;;;;;;5095657;28;20497;-45
2022/03/24 02:57:46;;;;;;;24.45;15.88;;;6.60;93.60;;;;;;5094163;28;20043;-43
2022/03/24 03:00:12;;;;;;;22.15;14.65;;;6.60;93.80;;;;;;5094328;28;20447;-44
2022/03/24 03:02:39;;;;;;;30.63;15.23;;;6.60;93.00;;;;;;5094093;28;20020;-46
2022/03/24 03:05:05;;;;;;;27.05;16.13;;;6.60;93.10;;;;;;5094167;28;20024;-44
2022/03/24 03:07:31;;;;;;;24.80;14.95;;;6.60;93.20;;;;;;5093826;28;20016;-42
2022/03/24 03:09:57;;;;;;;23.27;15.85;;;6.50;93.40;;;;;;5094409;28;20560;-42
2022/03/24 03:12:22;;;;;;;23.50;14.82;;;6.30;93.70;;;;;;5076897;28;20103;-42
2022/03/24 03:14:48;;;;;;;23.95;14.60;;;6.20;94.10;;;;;;5094973;28;20028;-43
2022/03/24 03:17:17;;;;;;;27.52;14.13;;;6.20;94.20;;;;;;5094968;28;20047;-42
2022/03/24 03:19:49;;;;;;;21.70;13.70;;;6.10;94.10;;;;;;5094002;28;20050;-42
2022/03/24 03:22:15;;;;;;;25.83;16.25;;;6.10;93.70;;;;;;5094377;28;20096;-45
2022/03/24 03:24:44;;;;;;;24.80;16.05;;;6.10;93.70;;;;;;5075659;28;20546;-43
2022/03/24 03:27:11;;;;;;;23.23;15.32;;;6.10;93.80;;;;;;5059472;28;20016;-43
2022/03/24 03:29:37;;;;;;;22.20;15.70;;;6.20;93.40;;;;;;5093905;28;20050;-44
2022/03/24 03:32:03;;;;;;;30.80;16.63;;;6.20;93.20;;;;;;5093574;28;20459;-43
2022/03/24 03:34:29;;;;;;;23.38;16.02;;;6.20;93.20;;;;;;5093272;28;20441;-44
2022/03/24 03:36:55;;;;;;;26.30;17.73;;;6.20;93.60;;;;;;5092985;28;20285;-43
2022/03/24 03:39:20;;;;;;;32.72;16.67;;;6.30;93.80;;;;;;5092031;28;20021;-46
2022/03/24 03:41:46;;;;;;;31.05;16.77;;;6.20;94.10;;;;;;5091620;28;20099;-49
2022/03/24 03:44:11;;;;;;;30.00;18.27;;;6.20;94.20;;;;;;5092755;28;20017;-50
2022/03/24 03:46:37;;;;;;;29.60;19.10;;;6.30;94.30;;;;;;5092889;28;20028;-50
2022/03/24 03:49:04;;;;;;;31.33;17.13;;;6.30;94.40;;;;;;5092950;28;20027;-49
2022/03/24 03:51:31;;;;;;;25.48;16.50;;;6.20;94.40;;;;;;5092980;28;20053;-46
2022/03/24 03:53:57;;;;;;;24.98;16.23;;;6.10;94.70;;;;;;5093069;28;20016;-47
2022/03/24 03:56:23;;;;;;;29.52;17.75;;;6.10;94.80;;;;;;5092852;28;20035;-46
2022/03/24 03:58:49;;;;;;;24.25;15.55;;;6.10;94.90;;;;;;5074488;28;20028;-44
2022/03/24 04:01:14;;;;;;;24.65;17.33;;;6.10;95.10;;;;;;5092925;28;20038;-53
2022/03/24 04:03:41;;;;;;;29.30;16.98;;;6.10;95.10;;;;;;5092885;28;20016;-46
2022/03/24 04:06:09;;;;;;;27.98;16.80;;;6.10;95.20;;;;;;5092584;28;20024;-48
2022/03/24 04:08:36;;;;;;;27.75;16.75;;;6.10;95.20;;;;;;5092198;28;20024;-51
2022/03/24 04:11:03;;;;;;;31.08;18.10;;;6.10;95.10;;;;;;5074512;28;20115;-48
2022/03/24 04:13:28;;;;;;;32.22;17.75;;;6.20;95.10;;;;;;5092697;28;20032;-51
2022/03/24 04:15:54;;;;;;;24.98;17.48;;;6.20;95.10;;;;;;5092411;28;20028;-46
2022/03/24 04:18:20;;;;;;;30.25;17.73;;;6.20;95.20;;;;;;5074027;28;20391;-50
2022/03/24 04:20:46;;;;;;;29.60;17.25;;;6.10;95.40;;;;;;5092617;28;20024;-46
2022/03/24 04:23:12;;;;;;;39.33;18.70;;;6.00;95.60;;;;;;5092695;28;20020;-48
2022/03/24 04:25:38;;;;;;;24.55;16.77;;;6.00;95.90;;;;;;5092440;28;20502;-50
2022/03/24 04:28:04;;;;;;;25.00;17.63;;;6.00;95.60;;;;;;5092142;28;20063;-48
2022/03/24 04:30:31;;;;;;;26.85;16.23;;;6.00;95.70;;;;;;5092305;28;20024;-49
2022/03/24 04:32:56;;;;;;;30.15;18.15;;;6.00;95.70;;;;;;5092264;28;20032;-50
2022/03/24 04:35:23;;;;;;;24.33;16.63;;;5.90;96.20;;;;;;5092267;28;20035;-51
2022/03/24 04:37:49;;;;;;;27.92;17.65;;;5.80;96.30;;;;;;5073959;28;20028;-49
2022/03/24 04:40:17;;;;;;;28.25;16.23;;;5.80;96.60;;;;;;5092321;28;20024;-49
2022/03/24 04:42:49;;;;;;;28.30;17.33;;;5.80;96.60;;;;;;5074068;28;20043;-51
2022/03/24 04:45:17;;;;;;;26.63;16.83;;;5.80;96.70;;;;;;5091946;28;20024;-49
2022/03/24 04:47:43;;;;;;;33.60;18.17;;;5.70;96.80;;;;;;5073549;28;20493;-48
2022/03/24 04:50:09;;;;;;;26.75;16.65;;;5.70;96.80;;;;;;5092220;28;20032;-47
2022/03/24 04:52:35;;;;;;;24.67;16.58;;;5.70;96.80;;;;;;5092034;28;20398;-48
2022/03/24 04:55:01;;;;;;;31.85;16.95;;;5.70;96.90;;;;;;5091321;28;20036;-48
2022/03/24 04:57:28;;;;;;;28.58;17.15;;;5.70;96.90;;;;;;5091161;28;20035;-49
2022/03/24 04:59:54;;;;;;;27.50;16.73;;;5.70;97.00;;;;;;5073647;28;20024;-48
2022/03/24 05:02:19;;;;;;;27.27;16.80;;;5.70;97.10;;;;;;5091830;28;20024;-49
2022/03/24 05:04:45;;;;;;;25.60;17.48;;;5.70;97.10;;;;;;5091901;28;20027;-47
2022/03/24 05:07:11;;;;;;;30.80;17.00;;;5.70;97.20;;;;;;5091417;28;20023;-46
2022/03/24 05:09:38;;;;;;;26.45;16.00;;;5.70;97.30;;;;;;5091512;28;20035;-46
2022/03/24 05:12:04;;;;;;;32.92;16.98;;;5.80;97.50;;;;;;5091714;28;20028;-48
2022/03/24 05:14:31;;;;;;;29.63;17.65;;;5.70;97.70;;;;;;5091650;28;20560;-47
2022/03/24 05:16:57;;;;;;;23.38;16.25;;;5.80;97.90;;;;;;5091564;28;20103;-47
2022/03/24 05:19:22;;;;;;;24.27;16.13;;;5.80;98.00;;;;;;5073570;28;20028;-47
2022/03/24 05:21:48;;;;;;;25.67;16.98;;;5.70;98.00;;;;;;5091703;28;20055;-53
2022/03/24 05:24:14;;;;;;;28.75;17.05;;;5.80;98.20;;;;;;5091610;28;20479;-48
2022/03/24 05:26:40;;;;;;;26.80;16.52;;;5.80;98.20;;;;;;5091469;28;20051;-47
2022/03/24 05:29:06;;;;;;;31.00;17.10;;;5.80;98.40;;;;;;5091581;28;20525;-46
2022/03/24 05:31:31;;;;;;;30.55;18.30;;;5.90;98.00;;;;;;5091546;28;20103;-48
2022/03/24 05:33:57;;;;;;;30.13;19.17;;;5.90;97.80;;;;;;5091639;28;20057;-47
2022/03/24 05:36:23;;;;;;;31.52;18.45;;;5.90;97.60;;;;;;5091325;28;20385;-49
2022/03/24 05:38:48;;;;;;;32.35;19.48;;;6.00;97.60;;;;;;5091265;28;20085;-46
2022/03/24 05:41:14;;;;;;;32.38;17.23;;;6.10;97.30;;;;;;5091510;28;20376;-47
2022/03/24 05:44:02;;;;;;;26.13;15.93;;;6.20;96.90;;;;;;5092086;28;20024;-46
2022/03/24 05:46:26;;;;;;;31.10;17.58;;;6.40;96.50;;;;;;5091291;28;20028;-48
2022/03/24 05:48:51;;;;;;;32.75;17.60;;;6.60;96.00;;;;;;5091300;28;20032;-47
2022/03/24 05:51:18;;;;;;;24.50;16.83;;;6.70;95.70;;;;;;5091429;28;20024;-47
2022/03/24 05:53:44;;;;;;;37.15;18.67;;;6.80;95.50;;;;;;5091359;28;20035;-47
2022/03/24 05:56:09;;;;;;;25.65;17.38;;;6.70;95.60;;;;;;5091234;28;20047;-46
2022/03/24 05:58:35;;;;;;;31.17;18.38;;;6.80;95.50;;;;;;5091243;28;20028;-48
2022/03/24 06:01:01;;;;;;;31.58;17.73;;;6.90;95.10;;;;;;5091496;28;20043;-47
2022/03/24 06:03:29;;;;;;;27.13;17.08;;;6.90;94.90;;;;;;5091377;28;20024;-46
2022/03/24 06:05:56;;;;;;;24.67;17.10;;;7.00;94.60;;;;;;5091419;28;20091;-49
2022/03/24 06:08:22;;;;;;;24.35;16.95;;;7.10;94.40;;;;;;5094017;28;20399;-48
2022/03/24 06:10:48;;;;;;;28.90;17.70;;;7.30;94.40;;;;;;5095259;28;20024;-46
2022/03/24 06:13:14;;;;;;;24.42;17.15;;;7.50;93.80;;;;;;5095118;28;20016;-50
2022/03/24 06:15:40;;;;;;;26.80;17.40;;;7.70;92.90;;;;;;5094925;28;20278;-50
2022/03/24 06:18:05;;;;;;;27.77;16.98;;;7.70;92.40;;;;;;5094473;28;20056;-48
2022/03/24 06:20:31;;;;;;;27.50;16.58;;;7.60;92.70;;;;;;5094985;28;20046;-48
2022/03/24 06:22:56;;;;;;;32.05;16.65;;;7.50;92.80;;;;;;5095039;28;20054;-51
2022/03/24 06:25:22;;;;;;;28.48;16.65;;;7.60;92.70;;;;;;5094727;28;20479;-46
2022/03/24 06:27:49;;;;;;;34.65;17.42;;;7.90;92.40;;;;;;5094385;28;20103;-47
2022/03/24 06:30:16;;;;;;;31.35;17.88;;;8.30;91.30;;;;;;5076566;28;20077;-47
2022/03/24 06:32:42;;;;;;;31.33;18.50;;;8.80;90.40;;;;;;5094664;28;20143;-47
2022/03/24 06:35:08;;;;;;;24.58;17.45;;;9.00;90.00;;;;;;5094660;28;20440;-46
2022/03/24 06:37:40;;;;;;;34.22;17.30;;;9.10;89.40;;;;;;5094068;28;20060;-48
2022/03/24 06:40:08;;;;;;;30.70;17.27;;;9.30;88.90;;;;;;5094650;28;20024;-48
2022/03/24 06:42:33;;;;;;;25.45;17.45;;;9.50;88.10;;;;;;5094515;28;20016;-46
2022/03/24 06:44:59;;;;;;;21.50;16.08;;;9.70;86.50;;;;;;5094315;28;20030;-47
2022/03/24 06:47:24;;;;;;;24.95;16.92;;;10.00;85.60;;;;;;5093958;28;20024;-47
2022/03/24 06:49:50;;;;;;;20.10;15.55;;;10.10;85.10;;;;;;5094357;28;20059;-50
2022/03/24 06:52:15;;;;;;;27.45;18.15;;;10.40;83.40;;;;;;5094540;28;20024;-46
2022/03/24 06:54:41;;;;;;;27.70;17.05;;;10.60;83.00;;;;;;5093876;28;20043;-48
2022/03/24 06:57:07;;;;;;;27.63;16.48;;;10.70;82.70;;;;;;5093895;28;20024;-51
2022/03/24 06:59:32;;;;;;;25.08;17.05;;;11.00;81.90;;;;;;5093855;28;20024;-48
2022/03/24 07:01:58;;;;;;;29.98;17.30;;;11.10;80.80;;;;;;5093927;28;20344;-49
2022/03/24 07:04:23;;;;;;;24.10;16.45;;;11.20;80.00;;;;;;5075734;28;20012;-47
2022/03/24 07:06:49;;;;;;;22.70;17.25;;;11.50;78.70;;;;;;5093742;28;20487;-49
2022/03/24 07:09:14;;;;;;;28.23;18.08;;;12.00;77.60;;;;;;5093684;28;20026;-49
2022/03/24 07:11:40;;;;;;;26.25;16.60;;;12.00;76.90;;;;;;5075843;28;20024;-46
2022/03/24 07:14:05;;;;;;;30.33;16.48;;;12.10;76.00;;;;;;5093847;28;20550;-46
2022/03/24 07:16:31;;;;;;;27.60;16.48;;;12.30;74.60;;;;;;5094051;28;20032;-48
2022/03/24 07:18:56;;;;;;;27.73;16.20;;;12.40;75.00;;;;;;5092705;28;20487;-48
2022/03/24 07:21:22;;;;;;;26.15;17.35;;;12.60;74.20;;;;;;5093659;28;20028;-48
2022/03/24 07:23:47;;;;;;;22.08;16.13;;;12.80;73.10;;;;;;5093576;28;20028;-46
2022/03/24 07:26:13;;;;;;;23.02;16.27;;;13.00;72.00;;;;;;5075197;28;20028;-46
2022/03/24 07:28:38;;;;;;;25.67;17.35;;;13.40;70.80;;;;;;5093064;28;20024;-50
2022/03/24 07:31:16;;;;;;;23.65;16.35;;;13.80;69.20;;;;;;5093420;28;20039;-50
2022/03/24 07:33:42;;;;;;;23.52;16.65;;;14.00;68.60;;;;;;5093456;28;20070;-46
2022/03/24 07:36:08;;;;;;;27.25;15.85;;;14.10;66.90;;;;;;5093259;28;20028;-50
2022/03/24 07:38:34;;;;;;;26.23;16.25;;;14.20;66.70;;;;;;5093138;28;20437;-46
2022/03/24 07:40:59;;;;;;;24.92;15.82;;;14.50;66.30;;;;;;5093337;28;20073;-50
2022/03/24 07:43:25;;;;;;;26.42;17.27;;;14.50;64.40;;;;;;5093545;28;20032;-46
2022/03/24 07:45:52;;;;;;;25.67;17.48;;;15.10;63.90;;;;;;5093343;28;20023;-49
2022/03/24 07:48:20;;;;;;;23.52;15.75;;;15.10;63.30;;;;;;5093014;28;20471;-47
2022/03/24 07:50:48;;;;;;;26.77;17.27;;;15.10;62.50;;;;;;5093125;28;20032;-45
2022/03/24 07:53:13;;;;;;;24.85;17.30;;;15.40;62.30;;;;;;5093205;28;20024;-47
2022/03/24 07:55:43;;;;;;;25.23;16.52;;;15.70;60.80;;;;;;5092653;28;20032;-44
2022/03/24 07:58:10;;;;;;;21.38;15.88;;;15.80;59.50;;;;;;5079719;22;20040;-43
2022/03/24 08:00:36;;;;;;;22.02;15.73;;;16.70;58.60;;;;;;5054694;28;20024;-50
2022/03/24 08:03:02;;;;;;;26.00;17.17;;;16.40;57.90;;;;;;5072809;28;20020;-51
2022/03/24 08:05:28;;;;;;;25.25;16.58;;;15.30;59.20;;;;;;5072914;28;20085;-52
2022/03/24 08:07:54;;;;;;;24.25;16.77;;;14.50;61.10;;;;;;5071571;28;20388;-47
2022/03/24 08:10:20;;;;;;;24.65;17.40;;;13.80;63.10;;;;;;5072624;28;20031;-45
2022/03/24 08:12:45;;;;;;;34.13;16.65;;;13.30;64.50;;;;;;5072599;28;20113;-45
2022/03/24 08:15:12;;;;;;;29.05;17.52;;;12.80;65.90;;;;;;5072488;28;20021;-47
2022/03/24 08:17:37;;;;;;;21.27;16.38;;;12.50;67.50;;;;;;5072009;28;20119;-44
2022/03/24 08:20:05;;;;;;;26.30;17.58;;;12.20;67.90;;;;;;5072502;28;20048;-47
2022/03/24 08:22:30;;;;;;;26.90;16.55;;;11.90;68.60;;;;;;5072443;28;20034;-50
2022/03/24 08:24:56;;;;;;;24.60;17.10;;;11.80;69.20;;;;;;5071090;28;20103;-48
2022/03/24 08:27:22;;;;;;;27.13;17.63;;;11.90;69.60;;;;;;5071787;28;20024;-47
2022/03/24 08:29:47;;;;;;;30.92;18.15;;;11.80;70.00;;;;;;5072400;28;20476;-44
2022/03/24 08:32:12;;;;;;;35.13;17.92;;;11.70;69.50;;;;;;5072313;28;20029;-50
2022/03/24 08:34:38;;;;;;;26.85;17.95;;;11.60;70.00;;;;;;5072192;28;20063;-48
2022/03/24 08:37:05;;;;;;;26.20;17.33;;;11.60;70.50;;;;;;5071724;28;20552;-51
2022/03/24 08:39:31;;;;;;;28.25;18.90;;;11.80;70.10;;;;;;5072094;28;20177;-53
2022/03/24 08:41:56;;;;;;;27.10;18.55;;;11.70;69.80;;;;;;5072244;28;20464;-50
2022/03/24 08:44:22;;;;;;;34.42;18.58;;;11.60;70.20;;;;;;5072020;28;20032;-49
2022/03/24 08:46:47;;;;;;;29.85;18.98;;;11.70;70.50;;;;;;5071674;28;20506;-48
2022/03/24 08:49:13;;;;;;;28.90;18.55;;;11.70;70.90;;;;;;5071839;28;20108;-49
2022/03/24 08:51:39;;;;;;;23.90;18.00;;;11.80;70.70;;;;;;5071980;28;20103;-44
2022/03/24 08:54:05;;;;;;;28.98;19.00;;;11.80;71.00;;;;;;5071899;28;20483;-51
2022/03/24 08:56:31;;;;;;;29.20;18.63;;;11.80;70.90;;;;;;5071565;28;20508;-51
2022/03/24 08:58:56;;;;;;;28.95;19.65;;;12.00;71.00;;;;;;5071618;28;20020;-47
2022/03/24 09:01:23;;;;;;;37.72;18.77;;;12.60;70.80;;;;;;5071818;28;20415;-49
2022/03/24 09:03:51;;;;;;;28.60;17.80;;;13.90;68.90;;;;;;5071670;28;20016;-48
2022/03/24 09:06:17;;;;;;;32.83;19.45;;;15.40;64.00;;;;;;5071626;28;20017;-48
2022/03/24 09:08:42;;;;;;;28.98;18.13;;;16.90;61.60;;;;;;5071517;28;20550;-51
2022/03/24 09:11:09;;;;;;;29.08;18.45;;;18.10;59.20;;;;;;5071647;28;20052;-47
2022/03/24 09:13:35;;;;;;;27.42;18.63;;;19.50;57.50;;;;;;5071802;28;20081;-48
2022/03/24 09:16:01;;;;;;;25.45;19.10;;;20.50;54.60;;;;;;5071673;28;20025;-49
2022/03/24 09:18:26;;;;;;;41.28;18.73;;;21.50;52.40;;;;;;5071026;28;20162;-50
2022/03/24 09:20:52;;;;;;;26.38;17.67;;;21.60;51.30;;;;;;5071571;28;20439;-48
2022/03/24 09:23:18;;;;;;;25.40;18.65;;;22.00;50.30;;;;;;5071673;28;20020;-45
2022/03/24 09:25:43;;;;;;;29.85;20.20;;;22.10;49.30;;;;;;5071839;28;20020;-47
2022/03/24 09:28:10;;;;;;;27.27;18.20;;;22.50;50.40;;;;;;5072292;28;20020;-49
2022/03/24 09:30:36;;;;;;;21.80;17.40;;;22.90;48.30;;;;;;5072181;28;20028;-49
2022/03/24 09:33:02;;;;;;;25.67;18.75;;;22.80;47.80;;;;;;5072336;28;20032;-48
2022/03/24 09:35:28;;;;;;;25.17;18.33;;;23.10;48.30;;;;;;5054609;28;20177;-50
2022/03/24 09:37:53;;;;;;;27.15;18.65;;;23.20;47.30;;;;;;5071785;28;20028;-51
2022/03/24 09:40:19;;;;;;;26.17;19.02;;;23.50;46.80;;;;;;5072405;28;20025;-46
2022/03/24 09:42:46;;;;;;;30.42;20.13;;;23.40;47.40;;;;;;5074485;28;20029;-49
2022/03/24 09:45:13;;;;;;;28.20;19.92;;;23.40;47.90;;;;;;5075656;28;20475;-46
2022/03/24 09:47:40;;;;;;;31.20;20.63;;;22.60;47.80;;;;;;5076868;28;20056;-46
2022/03/24 09:50:07;;;;;;;27.42;18.77;;;21.80;48.70;;;;;;5077052;28;20235;-47
2022/03/24 09:52:33;;;;;;;34.00;20.73;;;21.30;49.40;;;;;;5058629;28;20024;-49
2022/03/24 09:54:58;;;;;;;30.55;20.20;;;21.30;49.90;;;;;;5076634;28;20050;-47
2022/03/24 09:57:24;;;;;;;32.13;20.75;;;21.20;50.20;;;;;;5076098;28;20035;-47
2022/03/24 09:59:51;;;;;;;33.03;20.65;;;21.20;50.30;;;;;;5076889;28;20031;-47
2022/03/24 10:02:17;;;;;;;29.45;20.60;;;21.20;50.50;;;;;;5076307;28;20020;-47
2022/03/24 10:04:51;;;;;;;37.83;21.50;;;21.00;49.30;;;;;;5076408;28;20273;-48
2022/03/24 10:07:18;;;;;;;32.03;21.65;;;20.80;49.40;;;;;;5058376;28;20020;-45
2022/03/24 10:09:49;;;;;;;28.23;20.23;;;20.70;50.00;;;;;;5076589;28;20021;-45
2022/03/24 10:12:37;;;;;;;30.60;21.83;;;20.70;49.90;;;;;;5076684;28;20040;-52
2022/03/24 10:15:21;;;;;;;33.45;22.63;;;20.80;51.10;;;;;;5076821;28;20101;-51
2022/03/24 10:17:57;;;;;;;32.45;20.73;;;20.80;50.50;;;;;;5076680;28;20101;-48
2022/03/24 10:20:28;;;;;;;35.60;21.83;;;20.40;50.60;;;;;;5075357;28;20324;-53
2022/03/24 10:22:54;;;;;;;35.05;22.65;;;20.30;50.40;;;;;;5074963;28;20020;-53
2022/03/24 10:25:25;;;;;;;32.42;21.83;;;20.20;50.60;;;;;;5074977;28;20025;-48
2022/03/24 10:28:17;;;;;;;34.13;21.35;;;19.90;50.30;;;;;;5075231;28;20027;-46
2022/03/24 10:30:59;;;;;;;34.67;21.48;;;19.70;51.30;;;;;;5074468;28;20514;-54
2022/03/24 10:33:40;;;;;;;38.20;22.85;;;19.80;51.40;;;;;;5074629;28;20044;-50
2022/03/24 10:36:17;;;;;;;37.72;23.13;;;19.70;50.60;;;;;;5074246;28;20482;-46
2022/03/24 10:38:44;;;;;;;37.70;22.85;;;19.70;51.10;;;;;;5074132;28;20070;-48
2022/03/24 10:41:20;;;;;;;31.95;23.20;;;19.50;52.40;;;;;;5074305;28;20491;-50
2022/03/24 10:43:49;;;;;;;33.17;23.48;;;19.30;52.40;;;;;;5074322;28;20028;-50
2022/03/24 10:46:20;;;;;;;38.63;22.85;;;19.30;52.20;;;;;;5074182;28;20444;-54
2022/03/24 10:48:47;;;;;;;33.70;23.10;;;19.10;52.80;;;;;;5074370;28;20056;-49
2022/03/24 10:51:24;;;;;;;32.53;22.15;;;19.10;52.00;;;;;;5074303;28;20035;-50
2022/03/24 10:53:51;;;;;;;32.25;22.52;;;19.00;52.90;;;;;;5072873;28;20484;-45
2022/03/24 10:56:20;;;;;;;32.50;21.77;;;18.90;53.30;;;;;;5074506;28;20036;-47
2022/03/24 10:58:56;;;;;;;34.05;22.13;;;18.80;54.20;;;;;;5074163;28;20064;-47
2022/03/24 11:01:24;;;;;;;36.50;23.40;;;18.90;53.90;;;;;;5074116;28;20028;-49
2022/03/24 11:03:50;;;;;;;36.58;22.23;;;18.80;53.80;;;;;;5073935;28;20055;-47
2022/03/24 11:06:20;;;;;;;35.70;22.48;;;18.80;54.50;;;;;;5073652;28;20020;-52
2022/03/24 11:09:02;;;;;;;34.42;23.17;;;18.80;52.70;;;;;;5073154;28;20025;-50
2022/03/24 11:11:28;;;;;;;35.10;22.42;;;18.80;52.90;;;;;;5073954;28;20020;-47
2022/03/24 11:14:00;;;;;;;32.58;21.20;;;18.70;52.60;;;;;;5073711;28;20113;-52
2022/03/24 11:16:27;;;;;;;36.60;23.45;;;18.70;53.80;;;;;;5073579;28;20483;-48
2022/03/24 11:18:56;;;;;;;32.83;22.90;;;18.60;53.50;;;;;;5072012;28;20036;-50
2022/03/24 11:21:40;;;;;;;38.95;22.52;;;18.50;53.30;;;;;;5073733;28;20021;-48
2022/03/24 11:24:06;;;;;;;36.00;22.95;;;18.60;54.70;;;;;;5073717;28;20025;-47
2022/03/24 11:26:34;;;;;;;32.22;22.48;;;18.70;55.50;;;;;;5073277;28;20097;-46
2022/03/24 11:28:59;;;;;;;39.03;24.80;;;18.70;51.80;;;;;;5073270;28;20017;-49
2022/03/24 11:31:28;;;;;;;38.17;23.77;;;18.80;54.10;;;;;;5073476;28;20020;-53
2022/03/24 11:33:58;;;;;;;40.13;24.45;;;18.80;55.10;;;;;;5073419;28;20077;-44
2022/03/24 11:36:24;;;;;;;40.08;24.55;;;18.70;54.80;;;;;;5073142;28;20031;-48
2022/03/24 11:39:11;;;;;;;37.55;24.77;;;18.70;55.70;;;;;;5072688;28;20021;-48
2022/03/24 11:41:44;;;;;;;35.53;24.42;;;18.40;53.90;;;;;;5073104;28;20025;-45
2022/03/24 11:44:15;;;;;;;44.88;25.73;;;18.40;53.10;;;;;;5073074;28;20027;-45
2022/03/24 11:46:52;;;;;;;41.92;27.65;;;18.30;53.10;;;;;;5072940;28;20479;-49
2022/03/24 11:49:23;;;;;;;46.20;27.73;;;18.30;54.50;;;;;;5054899;28;20036;-46
2022/03/24 11:51:58;;;;;;;47.80;29.20;;;18.30;55.10;;;;;;5072938;28;20025;-46
2022/03/24 11:54:31;;;;;;;48.93;28.93;;;18.30;54.30;;;;;;5072959;28;20021;-49
2022/03/24 11:57:21;;;;;;;44.42;26.58;;;18.30;55.90;;;;;;5072139;28;20032;-45
2022/03/24 11:59:47;;;;;;;43.95;27.98;;;18.40;54.70;;;;;;5072566;28;20028;-45
2022/03/24 12:02:19;;;;;;;44.97;28.25;;;18.30;53.60;;;;;;5072472;28;20099;-50
2022/03/24 12:04:50;;;;;;;44.10;27.30;;;18.30;53.90;;;;;;5072392;28;20016;-48
2022/03/24 12:07:20;;;;;;;40.33;26.77;;;18.30;53.60;;;;;;5072091;28;20475;-48
2022/03/24 12:09:56;;;;;;;36.20;25.38;;;18.30;54.40;;;;;;5072160;28;20488;-48
2022/03/24 12:12:21;;;;;;;42.45;26.77;;;18.30;53.10;;;;;;5072531;28;20052;-50
2022/03/24 12:14:47;;;;;;;39.72;26.83;;;18.30;55.80;;;;;;5072448;28;20060;-49
2022/03/24 12:17:18;;;;;;;43.63;27.60;;;18.40;54.80;;;;;;5071939;28;20415;-46
2022/03/24 12:19:50;;;;;;;39.45;27.15;;;18.40;54.90;;;;;;5072278;28;20070;-46
2022/03/24 12:22:30;;;;;;;39.03;25.17;;;18.50;54.60;;;;;;5072175;28;20025;-48
2022/03/24 12:24:59;;;;;;;36.05;21.10;;;18.50;53.30;;;;;;5072545;28;20020;-50
2022/03/24 12:27:25;;;;;;;39.42;23.02;;;18.50;52.50;;;;;;5071821;28;20484;-45
2022/03/24 12:30:13;;;;;;;41.08;22.70;;;18.40;52.80;;;;;;5072390;28;20455;-45
2022/03/24 12:32:39;;;;;;;49.17;22.58;;;18.50;52.90;;;;;;5072155;28;20094;-43
2022/03/24 12:35:06;;;;;;;43.95;27.38;;;18.50;53.90;;;;;;5072150;28;20415;-44